Terminal Aerodrome Forecast
Issued by NWS Atlanta, GA

Home | Current Version | Previous Version | Text Only | Print | Product List | Glossary On
Versions: 1 2 3 4 5 6 7 8 9 10 11 12 13 14 15 16 17 18 19
000
FTUS42 KFFC 230500
TAFMCN
TAF
KMCN 230530Z 2306/2406 31002KT P6SM FEW250
     FM231600 32006KT P6SM FEW045
     FM231900 33008KT P6SM VCSH SCT060 PROB30 2319/2323 -TSRA
      BKN035CB
     FM240200 34005KT P6SM FEW070 SCT120=

USA.gov is the U.S. government's official web portal to all federal, state and local government web resources and services.